createdAt,value
2018-03-17T00:00:06.340Z,1.10
2018-03-17T00:02:34.719Z,0.77
2018-03-17T00:05:03.076Z,0.89
2018-03-17T00:07:31.443Z,1.01
2018-03-17T00:09:59.809Z,1.12
2018-03-17T00:12:28.183Z,1.58
2018-03-17T00:14:56.544Z,1.50
2018-03-17T00:17:25.303Z,1.76
2018-03-17T00:19:53.643Z,1.75
2018-03-17T00:22:22.026Z,1.35
2018-03-17T00:24:50.453Z,1.22
2018-03-17T00:27:19.220Z,0.93
2018-03-17T00:29:47.583Z,1.14
2018-03-17T00:32:15.957Z,1.19
2018-03-17T00:34:44.305Z,0.88
2018-03-17T00:37:12.672Z,0.75
2018-03-17T00:39:41.056Z,0.83
2018-03-17T00:42:09.809Z,1.10
2018-03-17T00:44:38.177Z,0.82
2018-03-17T00:47:06.661Z,0.51
2018-03-17T00:49:35.041Z,0.28
2018-03-17T00:52:03.415Z,-0.02
2018-03-17T00:54:31.767Z,-0.09
2018-03-17T00:57:00.143Z,-0.22
2018-03-17T00:59:28.503Z,-0.11
2018-03-17T01:01:56.883Z,-0.19
2018-03-17T01:04:25.238Z,-0.30
2018-03-17T01:06:54.003Z,0.19
2018-03-17T01:09:22.351Z,0.63
2018-03-17T01:11:50.723Z,0.74
2018-03-17T01:14:19.084Z,0.75
2018-03-17T01:16:47.448Z,0.27
2018-03-17T01:19:16.266Z,0.38
2018-03-17T01:21:44.572Z,0.12
2018-03-17T01:24:12.920Z,-0.08
2018-03-17T01:26:41.282Z,-0.03
2018-03-17T01:29:09.651Z,0.76
2018-03-17T01:31:38.435Z,0.23
2018-03-17T01:34:07.430Z,0.25
2018-03-17T01:36:36.202Z,-0.18
2018-03-17T01:39:04.553Z,0.14
2018-03-17T01:41:33.050Z,-0.20
2018-03-17T01:44:01.400Z,-0.54
2018-03-17T01:46:29.767Z,-0.65
2018-03-17T01:48:58.136Z,-0.69
2018-03-17T01:51:26.504Z,-1.10
2018-03-17T01:57:04.434Z,-0.66
2018-03-17T01:59:32.858Z,-0.12
2018-03-17T02:02:01.331Z,-0.11
2018-03-17T02:04:29.696Z,-0.62
2018-03-17T02:06:58.072Z,-0.75
2018-03-17T02:09:26.448Z,-0.24
2018-03-17T02:11:54.809Z,-0.67
2018-03-17T02:14:23.174Z,-0.37
2018-03-17T02:16:52.096Z,-0.32
2018-03-17T02:19:20.457Z,-0.49
2018-03-17T02:21:48.838Z,-0.26
2018-03-17T02:24:17.243Z,-0.55
2018-03-17T02:26:45.607Z,-0.13
2018-03-17T02:29:14.051Z,-0.23
2018-03-17T02:31:42.413Z,-0.12
2018-03-17T02:34:10.792Z,-0.03
2018-03-17T02:36:39.151Z,0.08
2018-03-17T02:39:07.511Z,-0.53
2018-03-17T02:41:35.892Z,-0.67
2018-03-17T02:44:04.252Z,-0.81
2018-03-17T02:46:32.634Z,-0.71
2018-03-17T02:49:00.994Z,-0.74
2018-03-17T02:51:29.387Z,-0.76
2018-03-17T02:53:57.753Z,-0.20
2018-03-17T02:56:26.123Z,0.02
2018-03-17T02:58:54.876Z,-0.01
2018-03-17T03:01:23.255Z,-0.22
2018-03-17T03:03:52.037Z,0.30
2018-03-17T03:06:20.415Z,-0.53
2018-03-17T03:08:48.772Z,-0.55
2018-03-17T03:11:17.149Z,-0.89
2018-03-17T03:13:45.503Z,-0.46
2018-03-17T03:16:13.912Z,-0.43
2018-03-17T03:18:42.273Z,-0.63
2018-03-17T03:21:10.636Z,0.22
2018-03-17T03:23:39.436Z,-0.45
2018-03-17T03:26:07.806Z,-0.54
2018-03-17T03:28:36.180Z,-0.38
2018-03-17T03:31:04.559Z,-0.39
2018-03-17T03:33:33.311Z,-0.68
2018-03-17T03:36:01.695Z,-0.49
2018-03-17T03:38:30.055Z,-0.60
2018-03-17T03:40:58.423Z,-1.12
2018-03-17T03:43:26.803Z,-1.03
2018-03-17T03:45:55.168Z,-1.05
2018-03-17T03:48:23.522Z,-0.64
2018-03-17T03:50:51.901Z,-0.55
2018-03-17T03:53:20.274Z,-0.43
2018-03-17T03:55:49.045Z,-0.51
2018-03-17T03:58:17.438Z,-0.63
2018-03-17T04:00:45.803Z,-0.67
2018-03-17T04:03:14.573Z,-0.20
2018-03-17T04:05:42.964Z,-0.85
2018-03-17T04:08:11.342Z,-0.86
2018-03-17T04:10:39.711Z,-0.76
2018-03-17T04:13:08.531Z,-1.00
2018-03-17T04:15:37.303Z,-1.15
2018-03-17T04:18:06.076Z,-0.81
2018-03-17T04:20:34.819Z,0.00
2018-03-17T04:23:03.195Z,-0.22
2018-03-17T04:25:31.561Z,-0.39
2018-03-17T04:27:59.927Z,-0.57
2018-03-17T04:30:28.679Z,-0.74
2018-03-17T04:32:57.086Z,-0.97
2018-03-17T04:35:25.846Z,-0.86
2018-03-17T04:37:54.212Z,-0.57
2018-03-17T04:40:22.594Z,-0.20
2018-03-17T04:42:50.964Z,-0.22
2018-03-17T04:45:19.351Z,-0.50
2018-03-17T04:47:47.722Z,-1.30
2018-03-17T04:50:16.104Z,-0.86
2018-03-17T04:52:44.476Z,-1.07
2018-03-17T04:55:12.863Z,-0.73
2018-03-17T04:57:41.231Z,-0.36
2018-03-17T05:00:09.604Z,-1.01
2018-03-17T05:02:37.975Z,-0.50
2018-03-17T05:05:06.370Z,-0.68
2018-03-17T05:07:34.763Z,-1.03
2018-03-17T05:10:03.152Z,-1.02
2018-03-17T05:12:31.518Z,-0.99
2018-03-17T05:14:59.880Z,-0.44
2018-03-17T05:17:28.259Z,-0.76
2018-03-17T05:19:56.619Z,-0.91
2018-03-17T05:22:24.996Z,-0.82
2018-03-17T05:24:53.423Z,-0.84
2018-03-17T05:27:21.795Z,-0.96
2018-03-17T05:29:50.162Z,-1.00
2018-03-17T05:32:18.532Z,-0.99
2018-03-17T05:34:46.896Z,-0.23
2018-03-17T05:37:15.280Z,-0.54
2018-03-17T05:39:43.651Z,-0.02
2018-03-17T05:42:12.020Z,-0.76
2018-03-17T05:44:40.772Z,-0.99
2018-03-17T05:47:09.174Z,-1.10
2018-03-17T05:49:37.928Z,-0.64
2018-03-17T05:52:06.306Z,-0.69
2018-03-17T05:54:34.671Z,-0.97
2018-03-17T05:57:03.035Z,-1.32
2018-03-17T05:59:31.413Z,-1.37
2018-03-17T06:01:59.778Z,-0.88
2018-03-17T06:04:28.135Z,-0.87
2018-03-17T06:06:56.901Z,-0.47
2018-03-17T06:09:25.266Z,-0.53
2018-03-17T06:11:53.628Z,-0.11
2018-03-17T06:14:21.971Z,-0.76
2018-03-17T06:16:50.335Z,-1.01
2018-03-17T06:19:19.137Z,-0.54
2018-03-17T06:21:47.511Z,0.02
2018-03-17T06:24:16.256Z,0.87
2018-03-17T06:26:44.629Z,0.44
2018-03-17T06:29:12.992Z,0.78
2018-03-17T06:31:41.360Z,1.37
2018-03-17T06:34:09.729Z,0.56
2018-03-17T06:36:38.097Z,1.14
2018-03-17T06:39:06.446Z,1.05
2018-03-17T06:41:34.852Z,0.51
2018-03-17T06:44:03.613Z,0.05
2018-03-17T06:46:31.972Z,0.33
2018-03-17T06:49:00.374Z,0.60
2018-03-17T06:51:28.751Z,1.31
2018-03-17T06:53:57.100Z,1.95
2018-03-17T06:56:25.472Z,2.02
2018-03-17T06:58:53.813Z,2.67
2018-03-17T07:01:22.183Z,3.70
2018-03-17T07:03:51.006Z,3.83
2018-03-17T07:06:19.367Z,3.26
2018-03-17T07:08:47.731Z,2.96
2018-03-17T07:11:16.500Z,3.38
2018-03-17T07:13:44.861Z,3.61
2018-03-17T07:16:13.219Z,2.36
2018-03-17T07:18:41.568Z,2.16
2018-03-17T07:21:09.915Z,2.79
2018-03-17T07:23:38.273Z,2.62
2018-03-17T07:26:06.635Z,2.35
2018-03-17T07:28:35.065Z,1.97
2018-03-17T07:31:03.823Z,1.57
2018-03-17T07:33:32.178Z,2.57
2018-03-17T07:36:00.547Z,2.98
2018-03-17T07:38:28.896Z,2.56
2018-03-17T07:40:57.648Z,2.49
2018-03-17T07:43:25.999Z,2.29
2018-03-17T07:45:54.364Z,1.48
2018-03-17T07:48:22.863Z,1.43
2018-03-17T07:50:51.224Z,0.56
2018-03-17T07:53:19.584Z,2.07
2018-03-17T07:55:47.980Z,2.76
2018-03-17T07:58:16.335Z,3.37
2018-03-17T08:00:45.103Z,3.89
2018-03-17T08:03:13.567Z,4.42
2018-03-17T08:05:41.938Z,4.76
2018-03-17T08:08:10.299Z,5.24
2018-03-17T08:10:38.663Z,4.85
2018-03-17T08:13:07.043Z,5.61
2018-03-17T08:15:35.423Z,5.75
2018-03-17T08:18:03.759Z,5.14
2018-03-17T08:20:32.141Z,4.64
2018-03-17T08:23:00.916Z,4.28
2018-03-17T08:25:29.320Z,4.23
2018-03-17T08:27:58.084Z,2.78
2018-03-17T08:30:26.468Z,2.41
2018-03-17T08:32:55.308Z,2.38
2018-03-17T08:35:23.684Z,2.79
2018-03-17T08:37:52.091Z,2.76
2018-03-17T08:40:20.453Z,3.08
2018-03-17T08:42:48.791Z,1.82
2018-03-17T08:45:17.550Z,1.86
2018-03-17T08:47:45.912Z,2.54
2018-03-17T08:50:14.293Z,2.53
2018-03-17T08:52:42.645Z,2.22
2018-03-17T08:55:11.013Z,2.17
2018-03-17T08:57:39.363Z,1.84
2018-03-17T09:00:07.733Z,2.25
2018-03-17T09:02:36.103Z,1.86
2018-03-17T09:05:04.869Z,2.03
2018-03-17T09:07:33.248Z,3.35
2018-03-17T09:10:01.604Z,3.70
2018-03-17T09:12:30.010Z,3.05
2018-03-17T09:14:58.414Z,2.87
2018-03-17T09:17:26.787Z,3.19
2018-03-17T09:19:55.174Z,2.50
2018-03-17T09:22:23.628Z,2.48
2018-03-17T09:24:52.018Z,2.78
2018-03-17T09:27:20.647Z,3.28
2018-03-17T09:29:49.040Z,2.52
2018-03-17T09:32:17.449Z,2.74
2018-03-17T09:34:45.826Z,3.18
2018-03-17T09:37:14.206Z,4.11
2018-03-17T09:39:42.563Z,4.76
2018-03-17T09:42:11.227Z,3.65
2018-03-17T09:44:40.057Z,3.81
2018-03-17T09:47:08.420Z,4.10
2018-03-17T09:49:36.892Z,5.20
2018-03-17T09:52:05.324Z,4.83
2018-03-17T09:54:33.703Z,3.98
2018-03-17T09:57:02.065Z,3.89
2018-03-17T09:59:30.407Z,2.86
2018-03-17T10:01:58.776Z,2.76
2018-03-17T10:04:27.143Z,3.38
2018-03-17T10:06:55.496Z,3.57
2018-03-17T10:09:23.859Z,3.59
2018-03-17T10:11:52.236Z,3.80
2018-03-17T10:14:20.615Z,3.14
2018-03-17T10:16:49.244Z,3.02
2018-03-17T10:19:17.636Z,2.15
2018-03-17T10:21:46.003Z,1.78
2018-03-17T10:24:14.625Z,2.12
2018-03-17T10:26:43.263Z,2.45
2018-03-17T10:29:11.831Z,2.93
2018-03-17T10:31:40.561Z,3.65
2018-03-17T10:34:09.370Z,3.75
2018-03-17T10:36:38.513Z,3.60
2018-03-17T10:39:07.154Z,3.68
2018-03-17T10:41:35.816Z,3.71
2018-03-17T10:44:04.531Z,3.93
2018-03-17T10:46:33.895Z,4.47
2018-03-17T10:49:02.489Z,4.49
2018-03-17T10:51:31.175Z,4.02
2018-03-17T10:53:59.869Z,3.95
2018-03-17T10:56:29.672Z,3.36
2018-03-17T10:58:58.375Z,2.63
2018-03-17T11:01:27.061Z,2.51
2018-03-17T11:03:55.731Z,2.69
2018-03-17T11:06:24.433Z,2.62
2018-03-17T11:08:53.119Z,3.25
2018-03-17T11:11:21.814Z,3.88
2018-03-17T11:13:50.885Z,2.88
2018-03-17T11:16:19.668Z,3.04
2018-03-17T11:18:48.274Z,3.27
2018-03-17T11:21:16.965Z,3.66
2018-03-17T11:23:45.623Z,3.38
2018-03-17T11:26:14.265Z,3.38
2018-03-17T11:28:43.924Z,3.10
2018-03-17T11:31:12.575Z,3.44
2018-03-17T11:33:41.133Z,3.33
2018-03-17T11:36:09.731Z,3.38
2018-03-17T11:38:39.281Z,3.61
2018-03-17T11:41:07.985Z,3.56
2018-03-17T11:43:36.602Z,3.40
2018-03-17T11:46:05.197Z,3.17
2018-03-17T11:48:33.821Z,3.43
2018-03-17T11:51:02.477Z,3.14
2018-03-17T11:53:31.144Z,3.99
2018-03-17T11:56:00.860Z,4.55
2018-03-17T11:58:29.487Z,4.08
2018-03-17T12:00:58.857Z,3.44
2018-03-17T12:03:27.437Z,4.29
2018-03-17T12:05:56.054Z,4.04
2018-03-17T12:08:24.719Z,3.73
2018-03-17T12:10:53.432Z,3.70
2018-03-17T12:13:22.063Z,3.26
2018-03-17T12:15:51.125Z,3.70
2018-03-17T12:18:19.645Z,3.30
2018-03-17T12:20:48.787Z,3.53
2018-03-17T12:23:17.370Z,3.21
2018-03-17T12:25:45.896Z,3.00
2018-03-17T12:28:14.947Z,3.34
2018-03-17T12:30:43.345Z,2.72
2018-03-17T12:33:11.738Z,2.57
2018-03-17T12:35:40.141Z,3.13
2018-03-17T12:38:08.496Z,3.74
2018-03-17T12:40:36.873Z,3.99
2018-03-17T12:43:05.252Z,3.77
2018-03-17T12:45:33.607Z,3.93
2018-03-17T12:48:01.995Z,3.65
2018-03-17T12:50:30.380Z,3.85
2018-03-17T12:52:58.762Z,3.66
2018-03-17T12:55:27.128Z,4.30
2018-03-17T12:57:55.489Z,3.71
2018-03-17T13:00:23.847Z,3.68
2018-03-17T13:02:52.216Z,3.67
2018-03-17T13:05:20.976Z,3.38
2018-03-17T13:07:49.336Z,3.26
2018-03-17T13:10:17.709Z,3.34
2018-03-17T13:12:46.079Z,3.81
2018-03-17T13:15:14.458Z,4.25
2018-03-17T13:17:42.814Z,3.52
2018-03-17T13:20:11.184Z,3.75
2018-03-17T13:22:58.071Z,3.01
2018-03-17T13:25:26.451Z,2.31
2018-03-17T13:28:12.984Z,3.00
2018-03-17T13:30:41.356Z,3.49
2018-03-17T13:33:09.727Z,3.31
2018-03-17T13:35:55.866Z,3.79
2018-03-17T13:38:24.277Z,3.10
2018-03-17T13:40:52.634Z,2.42
2018-03-17T13:43:21.002Z,2.89
2018-03-17T13:45:49.417Z,3.43
2018-03-17T13:48:17.800Z,3.29
2018-03-17T13:50:46.179Z,2.69
2018-03-17T13:53:14.533Z,2.80
2018-03-17T13:55:42.896Z,2.89
2018-03-17T13:58:13.134Z,2.70
2018-03-17T14:00:41.495Z,2.55
2018-03-17T14:03:09.870Z,2.50
2018-03-17T14:05:38.249Z,2.72
2018-03-17T14:08:06.605Z,2.19
2018-03-17T14:10:35.136Z,2.61
2018-03-17T14:13:03.509Z,2.82
2018-03-17T14:15:31.908Z,2.51
2018-03-17T14:18:00.259Z,2.63
2018-03-17T14:20:28.653Z,2.50
2018-03-17T14:22:57.036Z,3.05
2018-03-17T14:25:25.419Z,2.85
2018-03-17T14:27:53.770Z,2.88
2018-03-17T14:30:22.161Z,2.55
2018-03-17T14:32:50.504Z,2.78
2018-03-17T14:35:18.928Z,2.02
2018-03-17T14:37:47.268Z,2.13
2018-03-17T14:40:15.619Z,2.45
2018-03-17T14:42:44.384Z,2.41
2018-03-17T14:45:12.740Z,2.13
2018-03-17T14:47:41.123Z,2.01
2018-03-17T14:50:09.526Z,2.02
2018-03-17T14:52:37.881Z,1.94
2018-03-17T14:55:06.248Z,1.93
2018-03-17T14:57:34.596Z,2.50
2018-03-17T15:00:02.960Z,2.82
2018-03-17T15:02:31.736Z,3.05
2018-03-17T15:05:00.088Z,2.90
2018-03-17T15:07:28.445Z,2.95
2018-03-17T15:09:56.795Z,3.35
2018-03-17T15:12:25.191Z,3.92
2018-03-17T15:14:53.535Z,3.81
2018-03-17T15:17:22.304Z,3.77
2018-03-17T15:19:50.656Z,2.91
2018-03-17T15:22:19.044Z,2.55
2018-03-17T15:24:47.425Z,2.67
2018-03-17T15:27:15.789Z,2.09
2018-03-17T15:29:44.149Z,2.10
2018-03-17T15:32:12.539Z,2.24
2018-03-17T15:34:40.888Z,2.16
2018-03-17T15:37:09.262Z,2.67
2018-03-17T15:39:38.017Z,2.68
2018-03-17T15:42:06.486Z,2.23
2018-03-17T15:44:34.844Z,1.91
2018-03-17T15:47:03.208Z,2.16
2018-03-17T15:49:31.566Z,2.17
2018-03-17T15:52:00.324Z,2.41
2018-03-17T15:54:28.726Z,2.31
2018-03-17T15:56:57.068Z,2.61
2018-03-17T15:59:25.419Z,2.36
2018-03-17T16:01:53.792Z,2.37
2018-03-17T16:04:22.201Z,2.73
2018-03-17T16:06:50.571Z,2.73
2018-03-17T16:09:18.927Z,2.52
2018-03-17T16:11:47.305Z,2.22
2018-03-17T16:14:15.696Z,1.75
2018-03-17T16:16:44.057Z,2.39
2018-03-17T16:19:12.420Z,2.67
2018-03-17T16:21:40.865Z,3.09
2018-03-17T16:24:09.404Z,3.10
2018-03-17T16:26:37.767Z,3.24
2018-03-17T16:29:06.139Z,2.57
2018-03-17T16:31:35.066Z,2.64
2018-03-17T16:34:03.431Z,2.83
2018-03-17T16:36:31.798Z,2.90
2018-03-17T16:39:00.165Z,2.99
2018-03-17T16:41:29.007Z,2.29
2018-03-17T16:43:57.360Z,2.47
2018-03-17T16:46:25.731Z,3.26
2018-03-17T16:48:54.131Z,3.41
2018-03-17T16:51:22.520Z,3.45
2018-03-17T16:53:50.867Z,2.22
2018-03-17T16:56:19.260Z,2.76
2018-03-17T16:58:47.641Z,2.93
2018-03-17T17:01:16.014Z,2.73
2018-03-17T17:03:44.367Z,2.60
2018-03-17T17:06:12.765Z,3.14
2018-03-17T17:08:41.120Z,3.21
2018-03-17T17:11:09.534Z,3.15
2018-03-17T17:13:37.863Z,2.67
2018-03-17T17:16:06.232Z,2.81
2018-03-17T17:18:34.635Z,1.82
2018-03-17T17:21:04.150Z,1.66
2018-03-17T17:23:33.203Z,1.64
2018-03-17T17:26:01.569Z,1.97
2018-03-17T17:28:29.923Z,1.99
2018-03-17T17:30:58.303Z,1.99
2018-03-17T17:33:26.648Z,1.84
2018-03-17T17:35:55.042Z,1.55
2018-03-17T17:38:23.500Z,1.76
2018-03-17T17:40:51.834Z,1.40
2018-03-17T17:43:20.221Z,1.69
2018-03-17T17:45:48.626Z,1.35
2018-03-17T17:48:16.973Z,1.68
2018-03-17T17:50:45.348Z,1.41
2018-03-17T17:53:13.708Z,1.65
2018-03-17T17:55:42.117Z,1.58
2018-03-17T17:58:10.481Z,1.50
2018-03-17T18:00:38.858Z,1.38
2018-03-17T18:03:07.291Z,1.38
2018-03-17T18:05:35.617Z,1.54
2018-03-17T18:08:03.980Z,1.47
2018-03-17T18:10:32.554Z,1.45
2018-03-17T18:13:00.910Z,1.48
2018-03-17T18:15:29.684Z,1.43
2018-03-17T18:17:58.045Z,1.61
2018-03-17T18:20:26.494Z,1.94
2018-03-17T18:22:55.426Z,1.51
2018-03-17T18:25:23.817Z,1.73
2018-03-17T18:27:52.563Z,1.41
2018-03-17T18:30:20.965Z,1.08
2018-03-17T18:32:49.376Z,1.19
2018-03-17T18:35:18.138Z,1.18
2018-03-17T18:37:46.483Z,1.19
2018-03-17T18:40:14.864Z,1.01
2018-03-17T18:42:43.224Z,1.04
2018-03-17T18:45:11.591Z,1.71
2018-03-17T18:47:40.125Z,1.54
2018-03-17T18:50:08.495Z,1.38
2018-03-17T18:52:36.863Z,1.45
2018-03-17T18:55:05.256Z,1.72
2018-03-17T18:57:33.617Z,1.72
2018-03-17T19:00:01.987Z,1.93
2018-03-17T19:02:30.361Z,2.13
2018-03-17T19:04:58.750Z,1.85
2018-03-17T19:07:27.140Z,1.77
2018-03-17T19:09:55.518Z,1.15
2018-03-17T19:12:23.885Z,1.63
2018-03-17T19:14:52.300Z,1.56
2018-03-17T19:17:20.661Z,1.93
2018-03-17T19:19:49.019Z,1.94
2018-03-17T19:22:17.380Z,1.36
2018-03-17T19:24:45.735Z,1.81
2018-03-17T19:27:14.499Z,1.95
2018-03-17T19:29:42.840Z,1.88
2018-03-17T19:32:11.213Z,1.59
2018-03-17T19:34:39.592Z,1.72
2018-03-17T19:37:07.956Z,1.86
2018-03-17T19:39:36.315Z,1.46
2018-03-17T19:42:05.083Z,1.40
2018-03-17T19:44:33.501Z,1.31
2018-03-17T19:47:01.824Z,0.98
2018-03-17T19:49:30.244Z,1.46
2018-03-17T19:51:58.635Z,1.48
2018-03-17T19:54:26.996Z,1.46
2018-03-17T19:56:55.400Z,1.61
2018-03-17T19:59:23.765Z,1.53
2018-03-17T20:01:52.583Z,1.46
2018-03-17T20:04:20.948Z,1.75
2018-03-17T20:06:49.319Z,1.48
2018-03-17T20:09:17.681Z,1.21
2018-03-17T20:11:46.066Z,1.11
2018-03-17T20:14:14.848Z,1.00
2018-03-17T20:16:43.629Z,0.85
2018-03-17T20:19:12.110Z,0.98
2018-03-17T20:21:40.441Z,1.54
2018-03-17T20:24:08.800Z,1.25
2018-03-17T20:26:37.177Z,0.91
2018-03-17T20:29:05.539Z,1.40
2018-03-17T20:31:34.302Z,1.34
2018-03-17T20:34:02.660Z,0.95
2018-03-17T20:36:31.023Z,0.63
2018-03-17T20:38:59.383Z,0.91
2018-03-17T20:41:27.769Z,0.82
2018-03-17T20:43:56.143Z,1.01
2018-03-17T20:46:24.521Z,0.61
2018-03-17T20:48:52.898Z,0.14
2018-03-17T20:51:21.295Z,0.51
2018-03-17T20:53:49.708Z,0.50
2018-03-17T20:56:18.107Z,0.63
2018-03-17T20:58:46.845Z,0.28
2018-03-17T21:01:15.218Z,0.70
2018-03-17T21:03:43.563Z,1.16
2018-03-17T21:06:12.355Z,0.81
2018-03-17T21:08:40.724Z,1.05
2018-03-17T21:11:09.489Z,0.69
2018-03-17T21:13:37.835Z,0.52
2018-03-17T21:16:06.239Z,0.95
2018-03-17T21:18:34.684Z,0.85
2018-03-17T21:21:03.051Z,1.09
2018-03-17T21:23:31.412Z,1.39
2018-03-17T21:26:00.195Z,0.57
2018-03-17T21:28:28.993Z,0.74
2018-03-17T21:30:57.755Z,0.74
2018-03-17T21:33:26.110Z,0.45
2018-03-17T21:35:54.472Z,-0.11
2018-03-17T21:38:22.828Z,0.43
2018-03-17T21:40:51.196Z,0.14
2018-03-17T21:43:19.944Z,0.10
2018-03-17T21:45:48.312Z,0.34
2018-03-17T21:48:16.673Z,0.06
2018-03-17T21:50:45.055Z,0.44
2018-03-17T21:53:13.403Z,-0.04
2018-03-17T21:55:41.801Z,0.20
2018-03-17T21:58:10.163Z,0.00
2018-03-17T22:00:38.538Z,0.29
2018-03-17T22:03:06.912Z,0.18
2018-03-17T22:05:35.288Z,0.26
2018-03-17T22:08:04.040Z,0.29
2018-03-17T22:10:32.397Z,0.68
2018-03-17T22:13:00.768Z,0.67
2018-03-17T22:15:29.144Z,0.24
2018-03-17T22:17:57.509Z,0.55
2018-03-17T22:20:25.872Z,0.26
2018-03-17T22:22:54.253Z,-0.01
2018-03-17T22:25:22.616Z,-0.07
2018-03-17T22:27:51.368Z,0.05
2018-03-17T22:30:19.740Z,0.15
2018-03-17T22:32:48.102Z,0.48
2018-03-17T22:35:16.493Z,-0.05
2018-03-17T22:37:44.929Z,0.35
2018-03-17T22:40:13.695Z,0.43
2018-03-17T22:42:42.147Z,0.09
2018-03-17T22:45:10.512Z,0.03
2018-03-17T22:47:38.886Z,-0.24
2018-03-17T22:50:07.249Z,-0.03
2018-03-17T22:52:35.636Z,-0.26
2018-03-17T22:55:04.000Z,-0.26
2018-03-17T22:57:32.395Z,-0.35
2018-03-17T23:00:00.768Z,-0.48
2018-03-17T23:02:29.162Z,-0.10
2018-03-17T23:04:57.519Z,-0.13
2018-03-17T23:07:25.882Z,0.10
2018-03-17T23:09:54.258Z,0.30
2018-03-17T23:12:23.023Z,0.15
2018-03-17T23:14:51.387Z,-0.04
2018-03-17T23:17:19.793Z,-0.09
2018-03-17T23:19:48.151Z,0.03
2018-03-17T23:22:16.524Z,0.40
2018-03-17T23:24:44.888Z,-0.12
2018-03-17T23:27:13.284Z,-0.03
2018-03-17T23:29:41.649Z,-0.09
2018-03-17T23:32:10.080Z,-0.48
2018-03-17T23:34:38.844Z,-0.84
2018-03-17T23:37:07.209Z,-0.49
2018-03-17T23:39:35.573Z,-0.74
2018-03-17T23:42:03.957Z,-0.11
2018-03-17T23:44:32.327Z,-0.33
2018-03-17T23:47:00.691Z,-0.43
2018-03-17T23:49:29.046Z,-0.85
2018-03-17T23:51:57.420Z,-0.77
2018-03-17T23:54:26.172Z,-0.20
2018-03-17T23:56:54.588Z,-0.19
2018-03-17T23:59:22.967Z,-0.24
